createdAt,value
2018-02-19T00:00:12.599Z,60.60
2018-02-19T00:02:40.116Z,55.23
2018-02-19T00:05:07.672Z,61.27
2018-02-19T00:07:35.192Z,56.33
2018-02-19T00:10:02.770Z,61.93
2018-02-19T00:12:30.293Z,56.77
2018-02-19T00:14:57.848Z,61.13
2018-02-19T00:17:25.372Z,63.03
2018-02-19T00:19:53.696Z,65.70
2018-02-19T00:22:21.216Z,61.03
2018-02-19T00:24:48.809Z,69.53
2018-02-19T00:27:17.105Z,61.47
2018-02-19T00:29:44.620Z,59.50
2018-02-19T00:32:12.188Z,66.03
2018-02-19T00:34:39.709Z,63.00
2018-02-19T00:37:08.032Z,60.80
2018-02-19T00:39:35.591Z,75.77
2018-02-19T00:42:03.118Z,65.97
2018-02-19T00:44:30.670Z,73.33
2018-02-19T00:46:58.184Z,63.20
2018-02-19T00:49:25.744Z,79.37
2018-02-19T00:51:53.268Z,68.13
2018-02-19T00:54:20.816Z,77.67
2018-02-19T00:56:49.103Z,73.00
2018-02-19T00:59:17.422Z,76.67
2018-02-19T01:01:44.949Z,77.73
2018-02-19T01:04:13.280Z,70.87
2018-02-19T01:06:40.815Z,76.27
2018-02-19T01:09:09.144Z,82.20
2018-02-19T01:11:36.671Z,73.00
2018-02-19T01:14:04.228Z,75.43
2018-02-19T01:16:31.764Z,78.53
2018-02-19T01:18:59.335Z,69.20
2018-02-19T01:21:26.866Z,73.70
2018-02-19T01:23:54.418Z,67.90
2018-02-19T01:26:21.936Z,69.90
2018-02-19T01:28:49.487Z,72.03
2018-02-19T01:31:17.779Z,75.13
2018-02-19T01:33:46.091Z,82.03
2018-02-19T01:36:13.607Z,76.20
2018-02-19T01:38:41.163Z,83.83
2018-02-19T01:41:08.688Z,82.47
2018-02-19T01:43:36.244Z,86.43
2018-02-19T01:46:03.760Z,70.23
2018-02-19T01:48:31.304Z,70.23
2018-02-19T01:50:58.828Z,71.47
2018-02-19T01:53:26.380Z,85.23
2018-02-19T01:55:53.895Z,74.37
2018-02-19T01:58:21.440Z,73.70
2018-02-19T02:00:48.969Z,81.23
2018-02-19T02:03:16.536Z,80.00
2018-02-19T02:08:35.547Z,76.40
2018-02-19T02:11:03.860Z,74.90
2018-02-19T02:13:31.380Z,75.30
2018-02-19T02:15:58.931Z,73.80
2018-02-19T02:18:27.216Z,67.73
2018-02-19T02:20:54.763Z,76.37
2018-02-19T02:23:22.289Z,72.80
2018-02-19T02:25:49.856Z,72.57
2018-02-19T02:28:17.380Z,68.00
2018-02-19T02:30:44.899Z,74.40
2018-02-19T02:33:12.447Z,72.13
2018-02-19T02:35:39.963Z,81.53
2018-02-19T02:38:08.252Z,78.60
2018-02-19T02:40:36.575Z,80.87
2018-02-19T02:43:04.090Z,69.77
2018-02-19T02:45:32.425Z,85.40
2018-02-19T02:47:59.944Z,80.03
2018-02-19T02:50:27.499Z,72.87
2018-02-19T02:52:55.016Z,73.73
2018-02-19T02:55:23.336Z,71.23
2018-02-19T02:57:50.856Z,76.30
2018-02-19T03:00:18.402Z,78.33
2018-02-19T03:02:45.916Z,71.90
2018-02-19T03:05:13.478Z,80.37
2018-02-19T03:07:41.824Z,87.37
2018-02-19T03:10:09.340Z,82.53
2018-02-19T03:12:36.856Z,76.77
2018-02-19T03:15:04.413Z,76.27
2018-02-19T03:17:32.704Z,73.10
2018-02-19T03:20:01.021Z,72.87
2018-02-19T03:22:28.539Z,75.87
2018-02-19T03:24:56.095Z,78.27
2018-02-19T03:27:23.611Z,81.57
2018-02-19T03:29:51.919Z,79.37
2018-02-19T03:32:19.442Z,74.40
2018-02-19T03:34:47.001Z,71.13
2018-02-19T03:37:14.552Z,79.30
2018-02-19T03:39:42.100Z,69.47
2018-02-19T03:42:09.616Z,75.37
2018-02-19T03:44:37.164Z,75.93
2018-02-19T03:47:04.681Z,82.67
2018-02-19T03:49:32.228Z,72.60
2018-02-19T03:52:00.512Z,73.47
2018-02-19T03:54:28.057Z,73.03
2018-02-19T03:56:55.579Z,76.13
2018-02-19T03:59:23.128Z,76.03
2018-02-19T04:01:50.648Z,70.67
2018-02-19T04:04:18.972Z,73.90
2018-02-19T04:06:46.481Z,77.30
2018-02-19T04:09:14.041Z,71.80
2018-02-19T04:11:41.589Z,71.47
2018-02-19T04:14:09.111Z,72.60
2018-02-19T04:16:36.651Z,75.10
2018-02-19T04:19:04.168Z,72.80
2018-02-19T04:21:32.811Z,69.47
2018-02-19T04:24:00.327Z,66.13
2018-02-19T04:26:27.843Z,77.83
2018-02-19T04:28:55.396Z,69.13
2018-02-19T04:31:22.919Z,76.73
2018-02-19T04:33:50.471Z,68.17
2018-02-19T04:36:17.990Z,75.50
2018-02-19T04:38:46.309Z,65.30
2018-02-19T04:41:13.825Z,67.53
2018-02-19T04:43:41.346Z,69.20
2018-02-19T04:46:11.761Z,66.33
2018-02-19T04:48:39.276Z,71.90
2018-02-19T04:51:06.821Z,71.40
2018-02-19T04:53:35.099Z,69.27
2018-02-19T04:56:03.412Z,87.00
2018-02-19T04:58:30.930Z,74.37
2018-02-19T05:00:58.477Z,77.83
2018-02-19T05:03:26.034Z,82.03
2018-02-19T05:05:53.551Z,68.57
2018-02-19T05:08:21.111Z,64.63
2018-02-19T05:10:48.659Z,72.90
2018-02-19T05:13:16.247Z,72.40
2018-02-19T05:15:43.766Z,67.77
2018-02-19T05:18:12.051Z,72.43
2018-02-19T05:20:39.635Z,72.90
2018-02-19T05:23:07.922Z,73.90
2018-02-19T05:25:35.468Z,63.67
2018-02-19T05:28:02.991Z,71.03
2018-02-19T05:30:30.562Z,74.37
2018-02-19T05:32:58.108Z,79.73
2018-02-19T05:35:26.396Z,70.70
2018-02-19T05:37:54.738Z,82.53
2018-02-19T05:40:22.256Z,85.87
2018-02-19T05:42:50.605Z,65.73
2018-02-19T05:45:18.145Z,68.03
2018-02-19T05:47:45.679Z,70.43
2018-02-19T05:50:13.251Z,65.03
2018-02-19T05:52:40.763Z,70.37
2018-02-19T05:55:08.316Z,64.53
2018-02-19T05:57:36.639Z,65.53
2018-02-19T06:00:04.163Z,65.43
2018-02-19T06:02:31.718Z,71.70
2018-02-19T06:04:59.242Z,58.93
2018-02-19T06:07:26.791Z,64.93
2018-02-19T06:09:54.312Z,74.97
2018-02-19T06:12:32.258Z,63.03
2018-02-19T06:14:59.776Z,61.13
2018-02-19T06:17:27.340Z,55.80
2018-02-19T06:19:54.868Z,59.60
2018-02-19T06:22:22.892Z,60.10
2018-02-19T06:24:50.440Z,58.03
2018-02-19T06:27:18.007Z,60.87
2018-02-19T06:29:45.564Z,66.50
2018-02-19T06:32:13.092Z,58.97
2018-02-19T06:34:40.658Z,61.87
2018-02-19T06:37:08.179Z,56.20
2018-02-19T06:39:35.732Z,57.03
2018-02-19T06:42:03.256Z,64.00
2018-02-19T06:44:30.792Z,67.63
2018-02-19T06:46:58.312Z,60.53
2018-02-19T06:49:25.863Z,60.70
2018-02-19T06:51:54.148Z,62.57
2018-02-19T06:54:21.742Z,65.40
2018-02-19T06:56:50.028Z,69.83
2018-02-19T06:59:18.365Z,64.43
2018-02-19T07:01:45.888Z,68.83
2018-02-19T07:04:14.215Z,65.80
2018-02-19T07:06:41.735Z,75.10
2018-02-19T07:09:09.275Z,62.10
2018-02-19T07:11:36.823Z,54.83
2018-02-19T07:14:04.348Z,57.87
2018-02-19T07:16:31.900Z,62.10
2018-02-19T07:18:59.415Z,52.83
2018-02-19T07:21:27.739Z,52.90
2018-02-19T07:23:55.255Z,51.80
2018-02-19T07:26:22.797Z,60.53
2018-02-19T07:28:50.345Z,56.10
2018-02-19T07:31:17.872Z,50.03
2018-02-19T07:33:45.418Z,53.00
2018-02-19T07:36:12.932Z,61.40
2018-02-19T07:38:41.240Z,53.00
2018-02-19T07:41:08.760Z,46.93
2018-02-19T07:43:36.299Z,46.83
2018-02-19T07:46:03.808Z,52.37
2018-02-19T07:48:31.356Z,49.23
2018-02-19T07:50:58.875Z,48.47
2018-02-19T07:53:27.184Z,50.13
2018-02-19T07:55:54.707Z,48.90
2018-02-19T07:58:22.260Z,48.67
2018-02-19T08:00:49.779Z,45.00
2018-02-19T08:03:18.084Z,49.87
2018-02-19T08:05:46.359Z,46.00
2018-02-19T08:08:13.902Z,44.20
2018-02-19T08:10:41.452Z,46.93
2018-02-19T08:13:08.970Z,45.10
2018-02-19T08:15:36.516Z,46.23
2018-02-19T08:18:04.043Z,46.97
2018-02-19T08:20:31.593Z,47.23
2018-02-19T08:22:59.101Z,41.90
2018-02-19T08:25:26.648Z,41.00
2018-02-19T08:27:54.924Z,41.70
2018-02-19T08:30:23.249Z,45.20
2018-02-19T08:32:50.772Z,40.87
2018-02-19T08:35:18.324Z,39.70
2018-02-19T08:37:45.867Z,44.97
2018-02-19T08:40:13.432Z,40.53
2018-02-19T08:42:40.953Z,38.33
2018-02-19T08:45:08.459Z,35.27
2018-02-19T08:47:36.772Z,38.07
2018-02-19T08:50:04.284Z,34.23
2018-02-19T08:52:31.836Z,37.03
2018-02-19T08:54:59.347Z,39.90
2018-02-19T08:57:27.667Z,33.47
2018-02-19T08:59:55.184Z,32.90
2018-02-19T09:02:22.731Z,39.00
2018-02-19T09:04:50.246Z,31.80
2018-02-19T09:07:17.796Z,31.17
2018-02-19T09:09:45.308Z,36.37
2018-02-19T09:12:12.897Z,38.07
2018-02-19T09:14:40.412Z,39.30
2018-02-19T09:17:08.016Z,40.37
2018-02-19T09:19:36.333Z,35.17
2018-02-19T09:22:03.844Z,39.63
2018-02-19T09:24:31.418Z,38.17
2018-02-19T09:26:58.927Z,38.60
2018-02-19T09:29:27.244Z,45.87
2018-02-19T09:31:54.764Z,35.07
2018-02-19T09:34:22.299Z,35.50
2018-02-19T09:36:49.820Z,36.70
2018-02-19T09:39:18.132Z,35.27
2018-02-19T09:41:45.691Z,36.50
2018-02-19T09:44:13.220Z,38.33
2018-02-19T09:46:40.737Z,37.43
2018-02-19T09:49:09.061Z,35.47
2018-02-19T09:51:36.568Z,36.87
2018-02-19T09:54:04.137Z,39.87
2018-02-19T09:56:31.675Z,46.10
2018-02-19T09:58:59.204Z,34.00
2018-02-19T10:01:26.752Z,36.90
2018-02-19T10:03:54.263Z,41.63
2018-02-19T10:06:22.579Z,38.50
2018-02-19T10:08:50.108Z,34.73
2018-02-19T10:11:17.663Z,38.90
2018-02-19T10:13:45.180Z,32.30
2018-02-19T10:16:12.757Z,39.53
2018-02-19T10:18:40.297Z,32.90
2018-02-19T10:21:07.844Z,36.57
2018-02-19T10:23:35.365Z,35.53
2018-02-19T10:26:02.918Z,35.87
2018-02-19T10:28:30.463Z,38.37
2018-02-19T10:30:58.000Z,37.73
2018-02-19T10:33:25.509Z,36.07
2018-02-19T10:35:53.064Z,36.80
2018-02-19T10:38:20.587Z,33.00
2018-02-19T10:40:48.912Z,35.90
2018-02-19T10:43:16.438Z,33.50
2018-02-19T10:45:44.768Z,35.83
2018-02-19T10:48:12.300Z,32.20
2018-02-19T10:50:40.611Z,31.80
2018-02-19T10:53:08.128Z,34.53
2018-02-19T10:55:35.689Z,29.23
2018-02-19T10:58:03.208Z,28.30
2018-02-19T11:00:36.508Z,28.07
2018-02-19T11:03:04.026Z,26.27
2018-02-19T11:05:31.594Z,29.33
2018-02-19T11:07:59.127Z,30.63
2018-02-19T11:10:26.694Z,27.87
2018-02-19T11:12:54.215Z,32.80
2018-02-19T11:15:21.772Z,31.70
2018-02-19T11:17:49.296Z,27.47
2018-02-19T11:20:16.880Z,30.03
2018-02-19T11:22:44.418Z,31.57
2018-02-19T11:25:11.984Z,33.90
2018-02-19T11:27:39.516Z,32.20
2018-02-19T11:30:07.824Z,35.60
2018-02-19T11:32:35.344Z,29.97
2018-02-19T11:35:02.907Z,36.73
2018-02-19T11:37:30.465Z,32.73
2018-02-19T11:39:58.012Z,29.60
2018-02-19T11:42:25.524Z,29.47
2018-02-19T11:44:53.081Z,28.67
2018-02-19T11:47:20.637Z,30.90
2018-02-19T11:49:48.219Z,32.77
2018-02-19T11:52:15.756Z,31.87
2018-02-19T11:54:44.092Z,30.83
2018-02-19T11:57:11.639Z,27.03
2018-02-19T11:59:39.190Z,34.87
2018-02-19T12:02:07.476Z,32.63
2018-02-19T12:04:35.064Z,32.20
2018-02-19T12:07:03.349Z,34.53
2018-02-19T12:09:31.691Z,31.67
2018-02-19T12:11:59.225Z,31.30
2018-02-19T12:14:26.831Z,29.33
2018-02-19T12:16:55.140Z,29.67
2018-02-19T12:19:22.712Z,37.40
2018-02-19T12:21:50.256Z,27.87
2018-02-19T12:24:18.127Z,33.20
2018-02-19T12:26:45.669Z,32.07
2018-02-19T12:29:13.976Z,30.73
2018-02-19T12:31:41.533Z,34.47
2018-02-19T12:34:09.085Z,33.47
2018-02-19T12:36:36.609Z,30.90
2018-02-19T12:39:04.164Z,34.50
2018-02-19T12:41:31.680Z,30.60
2018-02-19T12:43:59.238Z,34.30
2018-02-19T12:46:26.760Z,27.30
2018-02-19T12:48:55.118Z,32.30
2018-02-19T12:51:22.635Z,31.07
2018-02-19T12:53:50.954Z,35.70
2018-02-19T12:56:18.477Z,34.57
2018-02-19T12:58:46.036Z,34.90
2018-02-19T13:01:13.552Z,34.73
2018-02-19T13:03:41.107Z,33.10
2018-02-19T13:06:09.401Z,32.03
2018-02-19T13:08:36.967Z,32.43
2018-02-19T13:11:05.268Z,30.30
2018-02-19T13:13:33.584Z,34.20
2018-02-19T13:16:01.109Z,33.47
2018-02-19T13:18:28.669Z,38.37
2018-02-19T13:20:56.192Z,35.30
2018-02-19T13:23:23.795Z,31.40
2018-02-19T13:25:51.365Z,29.47
2018-02-19T13:28:18.916Z,32.63
2018-02-19T13:30:46.460Z,31.60
2018-02-19T13:33:14.784Z,32.60
2018-02-19T13:35:42.304Z,31.67
2018-02-19T13:38:09.823Z,32.30
2018-02-19T13:40:37.370Z,33.93
2018-02-19T13:43:05.646Z,35.50
2018-02-19T13:45:33.964Z,29.50
2018-02-19T13:48:01.481Z,28.67
2018-02-19T13:50:29.047Z,31.57
2018-02-19T13:52:56.580Z,32.97
2018-02-19T13:55:24.141Z,32.27
2018-02-19T13:57:51.668Z,30.97
2018-02-19T14:00:19.216Z,35.80
2018-02-19T14:02:46.756Z,29.77
2018-02-19T14:05:14.325Z,29.87
2018-02-19T14:07:42.620Z,31.37
2018-02-19T14:10:10.135Z,31.43
2018-02-19T14:12:37.688Z,31.20
2018-02-19T14:15:05.212Z,28.60
2018-02-19T14:17:33.542Z,28.30
2018-02-19T14:20:01.052Z,31.80
2018-02-19T14:22:28.616Z,27.50
2018-02-19T14:24:56.165Z,29.90
2018-02-19T14:27:23.725Z,31.70
2018-02-19T14:29:51.276Z,34.00
2018-02-19T14:32:18.797Z,29.67
2018-02-19T14:34:46.359Z,28.40
2018-02-19T14:37:13.892Z,27.30
2018-02-19T14:39:42.199Z,34.47
2018-02-19T14:42:09.724Z,26.97
2018-02-19T14:44:37.280Z,30.80
2018-02-19T14:47:04.809Z,27.90
2018-02-19T14:49:32.358Z,35.67
2018-02-19T14:51:59.892Z,30.07
2018-02-19T14:54:27.451Z,30.70
2018-02-19T14:56:54.969Z,27.30
2018-02-19T14:59:23.387Z,35.23
2018-02-19T15:01:50.908Z,32.43
2018-02-19T15:04:18.458Z,31.10
2018-02-19T15:06:45.982Z,30.93
2018-02-19T15:09:14.304Z,34.63
2018-02-19T15:11:41.832Z,29.70
2018-02-19T15:14:09.400Z,27.20
2018-02-19T15:16:37.738Z,30.83
2018-02-19T15:19:05.268Z,34.13
2018-02-19T15:21:32.820Z,34.70
2018-02-19T15:24:00.367Z,32.00
2018-02-19T15:26:27.939Z,27.90
2018-02-19T15:28:55.517Z,34.27
2018-02-19T15:31:24.099Z,33.07
2018-02-19T15:33:51.655Z,32.67
2018-02-19T15:36:19.175Z,33.50
2018-02-19T15:38:46.723Z,30.90
2018-02-19T15:41:14.252Z,38.53
2018-02-19T15:43:41.831Z,29.67
2018-02-19T15:46:09.340Z,32.73
2018-02-19T15:48:36.905Z,38.77
2018-02-19T15:51:04.476Z,32.93
2018-02-19T15:53:32.031Z,30.60
2018-02-19T15:55:59.553Z,31.20
2018-02-19T15:58:27.108Z,32.17
2018-02-19T16:00:54.629Z,36.70
2018-02-19T16:03:22.177Z,31.47
2018-02-19T16:05:49.705Z,36.70
2018-02-19T16:08:17.257Z,31.03
2018-02-19T16:10:45.544Z,33.30
2018-02-19T16:13:13.903Z,37.73
2018-02-19T16:15:41.422Z,33.77
2018-02-19T16:18:09.032Z,32.17
2018-02-19T16:20:36.557Z,36.30
2018-02-19T16:23:04.867Z,32.53
2018-02-19T16:25:32.536Z,31.43
2018-02-19T16:28:00.064Z,35.90
2018-02-19T16:30:27.604Z,34.50
2018-02-19T16:32:55.119Z,33.90
2018-02-19T16:35:22.680Z,34.37
2018-02-19T16:37:50.222Z,31.47
2018-02-19T16:40:17.776Z,37.33
2018-02-19T16:42:45.296Z,33.20
2018-02-19T16:45:12.904Z,37.77
2018-02-19T16:47:40.392Z,34.33
2018-02-19T16:50:07.948Z,31.57
2018-02-19T16:52:36.231Z,32.80
2018-02-19T16:55:03.782Z,31.97
2018-02-19T16:57:31.308Z,32.50
2018-02-19T16:59:58.861Z,41.60
2018-02-19T17:02:26.388Z,31.33
2018-02-19T17:04:53.936Z,37.90
2018-02-19T17:07:21.447Z,36.30
2018-02-19T17:09:49.792Z,30.83
2018-02-19T17:12:17.312Z,31.23
2018-02-19T17:14:44.873Z,33.63
2018-02-19T17:17:12.399Z,35.63
2018-02-19T17:19:39.962Z,41.63
2018-02-19T17:22:07.480Z,36.87
2018-02-19T17:24:35.050Z,36.43
2018-02-19T17:27:02.610Z,33.37
2018-02-19T17:29:30.119Z,31.23
2018-02-19T17:31:58.439Z,37.93
2018-02-19T17:34:25.967Z,38.17
2018-02-19T17:36:53.524Z,39.03
2018-02-19T17:39:21.088Z,34.63
2018-02-19T17:41:48.622Z,39.03
2018-02-19T17:44:16.197Z,39.07
2018-02-19T17:46:43.764Z,35.87
2018-02-19T17:49:11.279Z,36.60
2018-02-19T17:51:38.833Z,31.90
2018-02-19T17:54:06.384Z,36.17
2018-02-19T17:56:33.928Z,37.03
2018-02-19T17:59:01.449Z,35.60
2018-02-19T18:01:29.015Z,33.50
2018-02-19T18:03:56.554Z,34.40
2018-02-19T18:06:24.871Z,37.00
2018-02-19T18:08:52.430Z,34.77
2018-02-19T18:11:19.948Z,35.10
2018-02-19T18:13:49.432Z,31.60
2018-02-19T18:16:16.992Z,35.37
2018-02-19T18:18:44.526Z,34.37
2018-02-19T18:21:12.077Z,43.63
2018-02-19T18:23:39.596Z,37.60
2018-02-19T18:26:07.923Z,43.97
2018-02-19T18:28:35.479Z,36.70
2018-02-19T18:31:03.028Z,40.43
2018-02-19T18:33:30.546Z,46.47
2018-02-19T18:35:58.092Z,46.73
2018-02-19T18:38:25.620Z,41.07
2018-02-19T18:40:53.178Z,38.57
2018-02-19T18:43:20.717Z,40.73
2018-02-19T18:45:48.276Z,42.20
2018-02-19T18:48:16.589Z,40.73
2018-02-19T18:50:44.152Z,39.07
2018-02-19T18:53:11.672Z,47.53
2018-02-19T18:55:39.276Z,46.70
2018-02-19T18:58:07.573Z,42.40
2018-02-19T19:00:35.127Z,39.27
2018-02-19T19:03:02.644Z,42.00
2018-02-19T19:05:30.194Z,42.90
2018-02-19T19:08:09.653Z,37.10
2018-02-19T19:10:43.013Z,53.67
2018-02-19T19:13:10.574Z,42.00
2018-02-19T19:15:38.108Z,40.93
2018-02-19T19:18:05.664Z,37.87
2018-02-19T19:20:33.970Z,45.47
2018-02-19T19:23:01.568Z,48.03
2018-02-19T19:25:29.120Z,41.10
2018-02-19T19:27:56.636Z,37.63
2018-02-19T19:30:24.238Z,38.30
2018-02-19T19:32:52.536Z,42.33
2018-02-19T19:35:20.080Z,39.83
2018-02-19T19:37:47.601Z,39.00
2018-02-19T19:40:15.134Z,47.07
2018-02-19T19:42:43.467Z,46.50
2018-02-19T19:45:11.021Z,46.90
2018-02-19T19:47:38.543Z,46.70
2018-02-19T19:50:06.099Z,44.97
2018-02-19T19:52:33.637Z,40.80
2018-02-19T19:55:01.961Z,49.93
2018-02-19T19:57:29.488Z,45.33
2018-02-19T19:59:57.803Z,44.77
2018-02-19T20:02:25.337Z,47.17
2018-02-19T20:04:52.888Z,43.97
2018-02-19T20:07:20.448Z,46.43
2018-02-19T20:09:47.963Z,44.23
2018-02-19T20:12:16.288Z,45.30
2018-02-19T20:14:43.961Z,45.57
2018-02-19T20:17:11.516Z,56.53
2018-02-19T20:19:39.041Z,46.90
2018-02-19T20:22:06.618Z,46.10
2018-02-19T20:24:34.136Z,48.83
2018-02-19T20:27:01.656Z,45.47
2018-02-19T20:29:29.223Z,53.57
2018-02-19T20:31:56.776Z,47.23
2018-02-19T20:34:24.331Z,55.93
2018-02-19T20:36:51.848Z,50.33
2018-02-19T20:39:19.387Z,47.00
2018-02-19T20:41:46.910Z,49.37
2018-02-19T20:44:14.462Z,49.10
2018-02-19T20:46:42.005Z,47.53
2018-02-19T20:49:09.556Z,49.73
2018-02-19T20:51:37.085Z,49.60
2018-02-19T20:54:04.639Z,55.10
2018-02-19T20:56:32.163Z,47.37
2018-02-19T20:58:59.705Z,46.10
2018-02-19T21:01:27.224Z,47.90
2018-02-19T21:03:54.768Z,48.53
2018-02-19T21:06:23.045Z,52.00
2018-02-19T21:08:51.377Z,46.47
2018-02-19T21:11:18.937Z,49.33
2018-02-19T21:13:46.447Z,49.10
2018-02-19T21:16:14.012Z,51.23
2018-02-19T21:18:41.541Z,54.93
2018-02-19T21:21:09.116Z,52.10
2018-02-19T21:23:37.396Z,58.70
2018-02-19T21:26:05.708Z,50.60
2018-02-19T21:28:33.262Z,46.23
2018-02-19T21:31:01.537Z,58.47
2018-02-19T21:33:29.093Z,50.70
2018-02-19T21:35:56.614Z,45.57
2018-02-19T21:38:24.211Z,45.00
2018-02-19T21:40:51.731Z,49.43
2018-02-19T21:43:19.280Z,47.70
2018-02-19T21:45:46.800Z,51.77
2018-02-19T21:48:14.347Z,47.57
2018-02-19T21:50:41.877Z,63.43
2018-02-19T21:53:09.436Z,57.07
2018-02-19T21:55:36.966Z,62.83
2018-02-19T21:58:05.280Z,52.83
2018-02-19T22:00:32.807Z,56.07
2018-02-19T22:03:00.358Z,57.60
2018-02-19T22:05:27.872Z,49.03
2018-02-19T22:07:55.425Z,56.10
2018-02-19T22:10:23.003Z,54.10
2018-02-19T22:12:50.516Z,63.57
2018-02-19T22:15:18.073Z,58.00
2018-02-19T22:17:45.607Z,58.13
2018-02-19T22:20:13.169Z,55.47
2018-02-19T22:22:40.679Z,52.40
2018-02-19T22:25:09.008Z,63.57
2018-02-19T22:27:36.526Z,57.90
2018-02-19T22:30:04.072Z,59.20
2018-02-19T22:32:31.625Z,55.13
2018-02-19T22:34:59.179Z,64.50
2018-02-19T22:37:26.737Z,54.37
2018-02-19T22:39:55.015Z,58.10
2018-02-19T22:42:22.572Z,61.27
2018-02-19T22:44:50.096Z,60.03
2018-02-19T22:47:17.653Z,67.90
2018-02-19T22:49:45.203Z,64.60
2018-02-19T22:52:12.728Z,69.93
2018-02-19T22:54:40.276Z,59.07
2018-02-19T22:57:07.791Z,64.80
2018-02-19T22:59:35.340Z,66.47
2018-02-19T23:02:03.432Z,57.80
2018-02-19T23:04:30.988Z,62.13
2018-02-19T23:06:58.505Z,65.07
2018-02-19T23:09:26.060Z,59.00
2018-02-19T23:11:53.579Z,57.23
2018-02-19T23:14:21.896Z,55.80
2018-02-19T23:16:49.416Z,59.47
2018-02-19T23:19:17.001Z,56.90
2018-02-19T23:21:45.299Z,57.00
2018-02-19T23:24:12.886Z,68.27
2018-02-19T23:26:40.404Z,68.23
2018-02-19T23:29:07.928Z,59.47
2018-02-19T23:31:35.485Z,62.43
2018-02-19T23:34:03.806Z,70.17
2018-02-19T23:36:31.332Z,70.73
2018-02-19T23:38:59.684Z,59.03
2018-02-19T23:41:27.211Z,54.83
2018-02-19T23:43:55.536Z,64.27
2018-02-19T23:46:23.052Z,57.10
2018-02-19T23:48:50.610Z,63.70
2018-02-19T23:51:18.143Z,56.10
2018-02-19T23:53:45.705Z,59.10
2018-02-19T23:56:13.219Z,56.77
2018-02-19T23:58:40.769Z,59.10
